Time;durP1;ratioP1;P1;durP2;ratioP2;P2;SDS_P1;SDS_P2;PMS_P1;PMS_P2;Temp;Humidity;BMP_temperature;BMP_pressure;BME280_temperature;BME280_humidity;BME280_pressure;Samples;Min_cycle;Max_cycle;Signal;HPM_P1;HPM_P2
2021/05/14 00:02:39;;;;;;;;;;;;;;;;;;;;;
2021/05/14 00:06:21;;;;;;;2.27;1.80;;;;;;;10.82;80.50;97657.16;123912;1111;64982;-91
2021/05/14 00:09:43;;;;;;;4.20;2.30;;;;;;;10.78;80.71;97645.91;123551;1114;64304;-89
2021/05/14 00:12:33;;;;;;;2.27;1.87;;;;;;;10.78;80.49;97640.56;123391;1114;64582;-88
2021/05/14 00:16:21;;;;;;;;;;;;;;;;;;;;;
2021/05/14 00:19:45;;;;;;;;;;;;;;;;;;;;;
2021/05/14 00:23:13;;;;;;;;;;;;;;;;;;;;;
2021/05/14 00:26:54;;;;;;;;;;;;;;;;;;;;;
2021/05/14 00:30:42;;;;;;;2.50;1.37;;;;;;;10.76;80.66;97642.55;123535;1109;64536;-90
2021/05/14 00:34:22;;;;;;;;;;;;;;;;;;;;;
2021/05/14 00:37:18;;;;;;;1.97;1.60;;;;;;;10.75;80.82;97640.00;123254;1117;64265;-89
2021/05/14 00:41:02;;;;;;;;;;;;;;;;;;;;;
2021/05/14 00:44:55;;;;;;;2.70;1.70;;;;;;;10.74;80.73;97643.67;122850;1116;64755;-92
2021/05/14 00:48:30;;;;;;;;;;;;;;;;;;;;;
2021/05/14 00:52:15;;;;;;;;;;;;;;;;;;;;;
2021/05/14 00:55:32;;;;;;;;;;;;;;;;;;;;;
2021/05/14 01:02:50;;;;;;;1.47;1.37;;;;;;;10.69;80.92;97640.63;122955;1117;64301;-93
2021/05/14 01:06:21;;;;;;;;;;;;;;;;;;;;;
2021/05/14 01:09:38;;;;;;;1.50;1.25;;;;;;;10.68;80.78;97630.90;122822;1117;64248;-89
2021/05/14 01:12:55;;;;;;;;;;;;;;;;;;;;;
2021/05/14 01:16:32;;;;;;;;;;;;;;;;;;;;;
2021/05/14 01:20:33;;;;;;;;;;;;;;;;;;;;;
2021/05/14 01:24:04;;;;;;;;;;;;;;;;;;;;;
2021/05/14 01:27:11;;;;;;;1.35;0.90;;;;;;;10.63;80.71;97625.19;122771;1118;64294;-94
2021/05/14 01:30:05;;;;;;;1.03;0.83;;;;;;;10.63;80.77;97630.52;122836;1113;64603;-93
2021/05/14 01:33:36;;;;;;;;;;;;;;;;;;;;;
2021/05/14 01:36:49;;;;;;;;;;;;;;;;;;;;;
2021/05/14 01:39:55;;;;;;;1.00;0.90;;;;;;;10.59;80.62;97637.96;122894;1118;64355;-90
2021/05/14 01:43:45;;;;;;;1.73;1.00;;;;;;;10.59;80.77;97637.13;123249;1109;64593;-91
2021/05/14 01:47:26;;;;;;;1.20;1.07;;;;;;;10.59;80.79;97640.63;123350;1114;64529;-91
2021/05/14 01:50:39;;;;;;;;;;;;;;;;;;;;;
2021/05/14 01:53:52;;;;;;;1.20;0.87;;;;;;;10.60;80.80;97642.31;123149;1115;64492;-92
2021/05/14 01:56:43;;;;;;;2.57;1.20;;;;;;;10.60;80.81;97646.81;123646;1106;64322;-93
2021/05/14 02:00:04;;;;;;;1.35;1.15;;;;;;;10.60;80.74;97642.31;123980;1103;64399;-89
2021/05/14 02:03:07;;;;;;;;;;;;;;;10.60;80.96;97647.66;124219;1107;64435;-90
2021/05/14 02:06:46;;;;;;;1.43;1.20;;;;;;;10.60;80.67;97647.66;124347;1105;64269;-91
2021/05/14 02:10:08;;;;;;;3.70;1.40;;;;;;;10.58;80.76;97648.80;124128;1108;64365;-87
2021/05/14 02:12:51;;;;;;;1.40;1.30;;;;;;;10.60;80.73;97657.48;124068;1103;64511;-92
2021/05/14 02:16:25;;;;;;;;;;;;;;;;;;;;;
2021/05/14 02:19:29;;;;;;;2.40;1.40;;;;;;;10.59;80.79;97663.82;124153;1103;64278;-87
2021/05/14 02:22:21;;;;;;;2.27;1.50;;;;;;;10.60;80.53;97665.50;124183;1108;64332;-89
2021/05/14 02:26:20;;;;;;;5.10;1.43;;;;;;;10.60;80.85;97660.16;123948;1103;64392;-92
2021/05/14 02:29:23;;;;;;;;;;;;;;;10.64;80.95;97669.58;123417;1114;64351;-92
2021/05/14 02:32:18;;;;;;;1.83;1.70;;;;;;;10.61;80.65;97667.17;123916;1106;64371;-94
2021/05/14 02:35:43;;;;;;;1.40;1.30;;;;;;;10.60;80.93;97669.01;123578;1111;64442;-92
2021/05/14 02:38:58;;;;;;;;;;;;;;;;;;;;;
2021/05/14 02:42:10;;;;;;;;;;;;;;;;;;;;;
2021/05/14 02:49:03;;;;;;;4.00;2.25;;;;;;;10.57;80.96;97677.32;123433;1114;64449;-89
2021/05/14 02:52:33;;;;;;;2.37;1.83;;;;;;;10.55;80.71;97677.44;123228;1109;64459;-88
2021/05/14 02:55:32;;;;;;;3.30;1.50;;;;;;;10.51;80.91;97675.22;123257;1117;64358;-88
2021/05/14 02:59:08;;;;;;;2.00;1.80;;;;;;;10.49;80.88;97672.67;123092;1117;64472;-87
2021/05/14 03:02:04;;;;;;;1.80;1.40;;;;;;;10.47;80.98;97677.33;123228;1112;64467;-87
2021/05/14 03:04:50;;;;;;;2.20;1.10;;;;;;;10.45;80.76;97670.45;122922;1109;64488;-87
2021/05/14 03:12:55;;;;;;;1.25;1.15;;;;;;;10.48;80.93;97681.67;125258;1090;64278;-86
2021/05/14 03:16:25;;;;;;;1.50;1.40;;;;;;;10.52;81.08;97677.74;124996;1096;64275;-88
2021/05/14 03:24:02;;;;;;;2.57;1.07;;;;;;;10.50;80.96;97679.72;123370;1106;64757;-88
2021/05/14 03:27:51;;;;;;;1.38;1.20;;;;;;;10.48;80.88;97678.16;123394;1109;64441;-88
2021/05/14 03:35:09;;;;;;;0.70;0.60;;;;;;;10.49;80.71;97682.52;122769;1120;64419;-86
2021/05/14 03:38:22;;;;;;;;;;;;;;;;;;;;;
2021/05/14 03:45:24;;;;;;;;;;;;;;;;;;;;;
2021/05/14 03:49:33;;;;;;;1.30;1.00;;;;;;;10.52;80.80;97683.08;122427;1119;64508;-94
2021/05/14 03:52:38;;;;;;;;;;;;;;;;;;;;;
2021/05/14 03:56:31;;;;;;;1.65;1.20;;;;;;;10.49;81.03;97696.70;122360;1122;64804;-88
2021/05/14 03:59:52;;;;;;;1.90;1.50;;;;;;;10.49;80.93;97690.52;122516;1118;64362;-93
2021/05/14 04:03:56;;;;;;;1.40;1.30;;;;;;;10.51;81.06;97684.07;122672;1116;64515;-95
2021/05/14 04:10:34;;;;;;;;;;;;;;;;;;;;;
2021/05/14 04:17:44;;;;;;;;;;;;;;;;;;;;;
2021/05/14 04:21:06;;;;;;;;;;;;;;;;;;;;;
2021/05/14 04:25:20;;;;;;;1.95;1.75;;;;;;;10.74;80.54;97695.23;122789;1120;64418;-90
2021/05/14 04:29:01;;;;;;;1.80;1.70;;;;;;;10.76;80.59;97701.30;122599;1118;64365;-91
2021/05/14 04:32:48;;;;;;;3.70;1.90;;;;;;;10.85;80.38;97704.91;122775;1124;64374;-90
2021/05/14 04:36:25;;;;;;;3.20;1.80;;;;;;;10.91;80.18;97703.50;122709;1121;64971;-90
2021/05/14 04:39:45;;;;;;;;;;;;;;;;;;;;;
2021/05/14 04:43:45;;;;;;;1.95;1.45;;;;;;;11.04;80.04;97712.87;122400;1125;64489;-90
2021/05/14 04:47:04;;;;;;;;;;;;;;;;;;;;;
2021/05/14 04:50:10;;;;;;;1.30;1.20;;;;;;;11.12;79.68;97716.63;122699;1121;64348;-88
2021/05/14 04:53:48;;;;;;;;;;;;;;;;;;;;;
2021/05/14 04:57:39;;;;;;;;;;;;;;;;;;;;;
2021/05/14 05:01:07;;;;;;;;;;;;;;;;;;;;;
2021/05/14 05:04:29;;;;;;;2.00;1.60;;;;;;;11.55;79.50;97727.55;123087;1124;64327;-91
2021/05/14 05:08:08;;;;;;;;;;;;;;;;;;;;;
2021/05/14 05:11:23;;;;;;;;;;;;;;;;;;;;;
2021/05/14 05:14:34;;;;;;;1.55;1.45;;;;;;;11.70;79.18;97719.02;122915;1124;64525;-88
2021/05/14 05:17:42;;;;;;;2.10;1.70;;;;;;;11.69;79.49;97725.36;123119;1117;64734;-89
2021/05/14 05:21:07;;;;;;;;;;;;;;;;;;;;;
2021/05/14 05:24:18;;;;;;;;;;;;;;;;;;;;;
2021/05/14 05:28:17;;;;;;;5.70;1.87;;;;;;;11.84;78.70;97731.94;124282;1106;64211;-89
2021/05/14 05:31:23;;;;;;;;;;;;;;;;;;;;;
2021/05/14 05:34:40;;;;;;;5.05;1.70;;;;;;;12.15;78.61;97740.41;123272;1114;64316;-89
2021/05/14 05:37:53;;;;;;;2.63;1.60;;;;;;;12.36;78.42;97742.81;123230;1109;64407;-88
2021/05/14 05:40:43;;;;;;;3.40;1.80;;;;;;;12.48;78.58;97738.91;123180;1114;64314;-94
2021/05/14 05:44:04;;;;;;;1.77;1.50;;;;;;;12.45;77.92;97745.39;123476;1106;64489;-90
2021/05/14 05:47:45;;;;;;;;;;;;;;;;;;;;;
2021/05/14 05:51:45;;;;;;;2.43;1.60;;;;;;;12.37;78.15;97748.00;123870;1111;64537;-88
2021/05/14 05:54:59;;;;;;;1.60;1.50;;;;;;;12.37;78.35;97758.71;123357;1114;64466;-92
2021/05/14 05:58:29;;;;;;;1.77;1.60;;;;;;;12.36;78.59;97761.55;123419;1114;64332;-92
2021/05/14 06:01:57;;;;;;;;;;;;;;;;;;;;;
2021/05/14 06:05:13;;;;;;;1.57;1.37;;;;;;;12.58;78.22;97769.09;123105;1117;64441;-91
2021/05/14 06:08:38;;;;;;;;;;;;;;;;;;;;;
2021/05/14 06:12:00;;;;;;;;;;;;;;;;;;;;;
2021/05/14 06:15:41;;;;;;;1.40;1.30;;;;;;;13.49;76.81;97771.44;123248;1117;64445;-88
2021/05/14 06:19:31;;;;;;;;;;;;;;;;;;;;;
2021/05/14 06:23:28;;;;;;;1.30;1.20;;;;;;;13.91;76.44;97774.11;123130;1109;64339;-87
2021/05/14 06:26:52;;;;;;;1.55;1.45;;;;;;;14.11;76.68;97774.66;123148;1117;64419;-93
2021/05/14 06:29:34;;;;;;;1.30;1.10;;;;;;;14.17;75.13;97784.75;123197;1112;64536;-88
2021/05/14 06:32:52;;;;;;;;;;;;;;;;;;;;;
2021/05/14 06:36:11;;;;;;;;;;;;;;;;;;;;;
2021/05/14 06:39:30;;;;;;;2.57;1.67;;;;;;;14.01;77.06;97798.14;123350;1109;64435;-91
2021/05/14 06:43:32;;;;;;;2.73;1.40;;;;;;;13.99;76.85;97800.96;123384;1114;64455;-90
2021/05/14 06:46:45;;;;;;;;;;;;;;;;;;;;;
2021/05/14 06:50:04;;;;;;;;;;;;;;;;;;;;;
2021/05/14 06:54:12;;;;;;;2.25;1.40;;;;;;;13.96;76.29;97803.15;123487;1108;64239;-92
2021/05/14 06:57:02;;;;;;;4.25;1.40;;;;;;;13.84;76.28;97802.59;123098;1117;64426;-93
2021/05/14 07:00:39;;;;;;;4.33;1.33;;;;;;;13.61;76.51;97810.36;123193;1117;64502;-95
2021/05/14 07:03:20;;;;;;;2.77;1.20;;;;;;;13.44;76.42;97816.66;123190;1117;64501;-85
2021/05/14 07:06:17;;;;;;;;;;;;;;;;;;;;;
2021/05/14 07:09:38;;;;;;;3.00;1.20;;;;;;;13.39;76.56;97818.97;123430;1114;64339;-93
2021/05/14 07:13:24;;;;;;;6.50;1.43;;;;;;;13.27;76.58;97830.95;123403;1114;64413;-92
2021/05/14 07:16:01;;;;;;;2.43;1.27;;;;;;;13.16;76.82;97827.48;123847;1106;64298;-85
2021/05/14 07:19:27;;;;;;;;;;;;;;;;;;;;;
2021/05/14 07:22:31;;;;;;;4.43;2.07;;;;;;;12.91;76.92;97833.66;123901;1110;64355;-92
2021/05/14 07:25:45;;;;;;;;;;;;;;;;;;;;;
2021/05/14 07:29:13;;;;;;;2.17;1.90;;;;;;;13.15;77.67;97838.38;123862;1108;64371;-86
2021/05/14 07:32:27;;;;;;;5.10;2.10;;;;;;;13.20;77.03;97836.94;124185;1107;64230;-93
2021/05/14 07:36:06;;;;;;;5.50;2.20;;;;;;;13.06;76.29;97834.80;125217;1096;64319;-87
2021/05/14 07:39:07;;;;;;;;;;;;;;;;;;;;;
2021/05/14 07:42:13;;;;;;;;;;;;;;;;;;;;;
2021/05/14 07:45:13;;;;;;;1.60;1.40;;;;;;;13.40;76.10;97847.45;124636;1102;64437;-89
2021/05/14 07:48:20;;;;;;;1.77;1.47;;;;;;;13.44;76.15;97852.36;124615;1104;64243;-89
2021/05/14 07:51:12;;;;;;;3.53;2.00;;;;;;;13.34;75.83;97848.09;124694;1104;64345;-90
2021/05/14 07:54:07;;;;;;;3.33;1.97;;;;;;;13.30;76.54;97849.42;124591;1096;64283;-88
2021/05/14 07:57:25;;;;;;;;;;;;;;;;;;;;;
2021/05/14 08:01:09;;;;;;;2.05;1.65;;;;;;;13.30;75.74;97852.10;124657;1101;64416;-92
2021/05/14 08:03:53;;;;;;;2.97;1.10;;;;;;;13.33;76.34;97855.30;124725;1096;64230;-88
2021/05/14 08:07:10;;;;;;;5.35;1.30;;;;;;;13.46;76.56;97860.23;125232;1096;64313;-94
2021/05/14 08:10:06;;;;;;;1.23;1.13;;;;;;;13.70;76.47;97863.08;124375;1100;64476;-88
2021/05/14 08:13:06;;;;;;;3.90;1.57;;;;;;;13.79;74.48;97856.73;124776;1104;64323;-85
2021/05/14 08:15:48;;;;;;;2.53;1.23;;;;;;;13.68;75.19;97857.03;124764;1100;64502;-88
2021/05/14 08:18:57;;;;;;;0.70;0.70;;;;;;;13.86;75.67;97864.98;124673;1101;64374;-89
2021/05/14 08:22:19;;;;;;;3.07;1.20;;;;;;;14.01;75.38;97867.93;124604;1102;64342;-91
2021/05/14 08:25:55;;;;;;;1.30;1.20;;;;;;;14.02;74.84;97874.97;124141;1103;64358;-90
2021/05/14 08:28:20;;;;;;;2.83;1.27;;;;;;;14.03;74.03;97877.48;124116;1100;64334;-87
2021/05/14 08:31:33;;;;;;;3.65;1.40;;;;;;;13.95;74.45;97881.98;124097;1107;64470;-86
2021/05/14 08:35:05;;;;;;;;;;;;;;;;;;;;;
2021/05/14 08:38:42;;;;;;;1.67;1.47;;;;;;;14.04;74.53;97878.33;124539;1107;64456;-92
2021/05/14 08:41:36;;;;;;;;;;;;;;;;;;;;;
2021/05/14 08:45:01;;;;;;;;;;;;;;;;;;;;;
2021/05/14 08:48:15;;;;;;;1.57;1.47;;;;;;;13.52;74.81;97891.80;124294;1100;64490;-92
2021/05/14 08:51:33;;;;;;;2.40;1.27;;;;;;;13.34;75.01;97891.83;124580;1105;64393;-88
2021/05/14 08:55:19;;;;;;;6.90;1.80;;;;;;;13.31;75.22;97896.68;124335;1100;64320;-89
2021/05/14 08:59:04;;;;;;;1.87;1.53;;;;;;;13.30;75.15;97887.80;124438;1101;64342;-86
2021/05/14 09:02:13;;;;;;;;;;;;;;;;;;;;;
2021/05/14 09:05:28;;;;;;;;;;;;;;;;;;;;;
2021/05/14 09:08:31;;;;;;;1.47;1.20;;;;;;;13.62;75.36;97900.59;124723;1105;64371;-89
2021/05/14 09:12:08;;;;;;;1.50;1.33;;;;;;;13.56;75.09;97908.43;124644;1100;64329;-89
2021/05/14 09:14:56;;;;;;;2.23;1.37;;;;;;;13.53;75.07;97904.20;124713;1104;64473;-89
2021/05/14 09:18:27;;;;;;;2.60;1.60;;;;;;;13.59;75.04;97916.14;124665;1105;64265;-87
2021/05/14 09:21:08;;;;;;;1.97;1.40;;;;;;;13.53;74.56;97921.13;124196;1108;64383;-86
2021/05/14 09:24:09;;;;;;;2.50;1.83;;;;;;;13.56;74.06;97909.27;124139;1108;64336;-92
2021/05/14 09:27:49;;;;;;;;;;;;;;;;;;;;;
2021/05/14 09:30:51;;;;;;;3.05;1.50;;;;;;;13.96;73.74;97921.25;124788;1096;64413;-86
2021/05/14 09:34:19;;;;;;;7.03;3.20;;;;;;;13.68;73.92;97916.05;124483;1104;64419;-89
2021/05/14 09:37:27;;;;;;;;;;;;;;;;;;;;;
2021/05/14 09:41:00;;;;;;;5.77;3.40;;;;;;;13.17;75.11;97931.06;124600;1101;64633;-89
2021/05/14 09:44:25;;;;;;;3.48;2.03;;;;;;;12.98;75.11;97936.58;124488;1104;64346;-90
2021/05/14 09:50:59;;;;;;;;;;;;;;;;;;;;;
2021/05/14 09:53:56;;;;;;;2.73;1.90;;;;;;;12.93;74.97;97952.27;124562;1100;64502;-87
2021/05/14 09:56:42;;;;;;;2.50;2.30;;;;;;;13.17;74.19;97940.94;124241;1100;64457;-87
2021/05/14 10:00:06;;;;;;;4.37;2.23;;;;;;;13.16;74.33;97942.75;124542;1104;64521;-88
2021/05/14 10:03:19;;;;;;;4.20;2.43;;;;;;;13.31;73.30;97940.42;124101;1100;64348;-88
2021/05/14 10:06:04;;;;;;;3.70;2.90;;;;;;;13.29;74.25;97941.55;124115;1100;64272;-87
2021/05/14 10:09:07;;;;;;;10.43;3.30;;;;;;;13.18;73.88;97950.66;124170;1100;64515;-87
2021/05/14 10:12:08;;;;;;;6.90;3.63;;;;;;;12.94;73.91;97960.14;124130;1102;64433;-87
2021/05/14 10:15:00;;;;;;;11.33;7.57;;;;;;;12.90;74.13;97960.59;124331;1099;64432;-85
2021/05/14 10:19:14;;;;;;;6.37;4.10;;;;;;;12.82;73.87;97960.52;124512;1100;64513;-92
2021/05/14 10:22:35;;;;;;;6.70;3.33;;;;;;;12.63;74.20;97959.64;124558;1100;64327;-86
2021/05/14 10:26:06;;;;;;;6.15;3.55;;;;;;;12.47;74.80;97956.79;124447;1105;64403;-89
2021/05/14 10:29:12;;;;;;;5.33;2.20;;;;;;;12.39;74.66;97965.54;124490;1105;64419;-88
2021/05/14 10:33:23;;;;;;;5.70;2.70;;;;;;;12.37;74.60;97966.69;124559;1100;64740;-88
2021/05/14 10:36:32;;;;;;;;;;;;;;;;;;;;;
2021/05/14 10:47:59;;;;;;;;;;;;;;;;;;;;;
2021/05/14 10:51:06;;;;;;;6.80;2.93;;;;;;;12.78;73.23;97967.16;124835;1101;64381;-92
2021/05/14 10:54:15;;;;;;;;;;;;;;;;;;;;;
2021/05/14 10:57:05;;;;;;;;;;;;;;;13.09;73.14;97964.97;125249;1101;64342;-86
2021/05/14 11:00:55;;;;;;;;;;;;;;;;;;;;;
2021/05/14 11:03:58;;;;;;;6.60;3.13;;;;;;;13.42;72.51;97975.05;124927;1096;64284;-85
2021/05/14 11:07:42;;;;;;;2.83;1.85;;;;;;;13.60;72.30;97976.84;124760;1102;64355;-89
2021/05/14 11:10:50;;;;;;;3.00;1.87;;;;;;;13.75;72.55;97975.30;124552;1096;64342;-84
2021/05/14 11:14:10;;;;;;;;;;;;;;;;;;;;;
2021/05/14 11:18:09;;;;;;;;;;;;;;;;;;;;;
2021/05/14 11:21:29;;;;;;;2.63;1.40;;;;;;;14.12;71.08;97977.69;125185;1101;64377;-87
2021/05/14 11:25:06;;;;;;;;;;;;;;;;;;;;;
2021/05/14 11:28:48;;;;;;;;;;;;;;;;;;;;;
2021/05/14 11:36:09;;;;;;;;;;;;;;;;;;;;;
2021/05/14 11:39:34;;;;;;;;;;;;;;;;;;;;;
2021/05/14 11:43:25;;;;;;;;;;;;;;;;;;;;;
2021/05/14 11:47:05;;;;;;;;;;;;;;;;;;;;;
2021/05/14 11:50:42;;;;;;;;;;;;;;;;;;;;;
2021/05/14 11:53:57;;;;;;;;;;;;;;;;;;;;;
2021/05/14 11:57:26;;;;;;;;;;;;;;;;;;;;;
2021/05/14 12:00:57;;;;;;;;;;;;;;;;;;;;;
2021/05/14 12:05:20;;;;;;;4.23;1.90;;;;;;;14.05;70.88;98016.91;123522;1111;64336;-92
2021/05/14 12:08:33;;;;;;;5.83;1.60;;;;;;;14.18;70.06;98009.27;123432;1106;64432;-88
2021/05/14 12:11:51;;;;;;;;;;;;;;;;;;;;;
2021/05/14 12:16:17;;;;;;;4.73;1.57;;;;;;;14.22;71.14;98017.87;123914;1103;64281;-87
2021/05/14 12:19:41;;;;;;;;;;;;;;;;;;;;;
2021/05/14 12:23:26;;;;;;;3.00;1.55;;;;;;;14.52;70.54;98021.94;124012;1106;64577;-85
2021/05/14 12:26:15;;;;;;;;;;;;;;;;;;;;;
2021/05/14 12:30:32;;;;;;;3.23;1.67;;;;;;;14.36;70.72;98027.17;124207;1103;64763;-83
2021/05/14 12:33:47;;;;;;;;;;;;;;;;;;;;;
2021/05/14 12:46:04;;;;;;;;;;;;;;;;;;;;;
2021/05/14 12:50:22;;;;;;;;;;;;;;;;;;;;;
2021/05/14 13:19:29;;;;;;;;;;;;;;;;;;;;;
2021/05/14 13:26:57;;;;;;;3.60;1.80;;;;;;;17.23;68.80;98044.09;124583;1096;64342;-88
2021/05/14 13:29:52;;;;;;;;;;;;;;;;;;;;;
2021/05/14 13:33:09;;;;;;;6.43;1.87;;;;;;;17.15;68.11;98044.14;124595;1100;64413;-84
2021/05/14 13:36:28;;;;;;;2.20;1.20;;;;;;;17.42;67.91;98053.59;124577;1104;64551;-87
2021/05/14 13:39:20;;;;;;;5.53;2.17;;;;;;;17.58;67.30;98047.27;124746;1099;64546;-86
2021/05/14 13:43:16;;;;;;;3.80;1.60;;;;;;;17.66;67.37;98056.13;124615;1104;64326;-89
2021/05/14 13:45:49;;;;;;;;;;;;;;;;;;;;;
2021/05/14 13:49:16;;;;;;;;;;;;;;;;;;;;;
2021/05/14 13:52:30;;;;;;;2.40;1.13;;;;;;;17.44;67.64;98062.38;123830;1105;64561;-85
2021/05/14 13:56:17;;;;;;;;;;;;;;;;;;;;;
2021/05/14 13:59:35;;;;;;;3.50;1.73;;;;;;;16.89;67.23;98064.16;123463;1106;64346;-88
2021/05/14 14:02:36;;;;;;;;;;;;;;;;;;;;;
2021/05/14 14:05:46;;;;;;;;;;;;;;;;;;;;;
2021/05/14 14:09:14;;;;;;;3.63;1.70;;;;;;;16.68;66.76;98055.78;123856;1106;64498;-87
2021/05/14 14:12:28;;;;;;;4.57;2.07;;;;;;;16.35;66.85;98055.88;123876;1106;64255;-89
2021/05/14 14:16:25;;;;;;;3.63;1.73;;;;;;;16.25;67.92;98067.84;123941;1105;64361;-86
2021/05/14 14:19:25;;;;;;;1.83;1.20;;;;;;;16.36;67.51;98065.63;123462;1114;64411;-87
2021/05/14 14:22:58;;;;;;;3.70;1.50;;;;;;;16.34;67.34;98067.63;123641;1104;64345;-88
2021/05/14 14:26:20;;;;;;;3.67;1.37;;;;;;;16.23;67.50;98068.02;123941;1111;64355;-86
2021/05/14 14:29:31;;;;;;;4.63;2.43;;;;;;;15.67;67.17;98072.39;124381;1108;64313;-85
2021/05/14 14:33:01;;;;;;;2.35;1.85;;;;;;;15.38;68.17;98073.64;124239;1108;64451;-87
2021/05/14 14:36:11;;;;;;;;;;;;;;;;;;;;;
2021/05/14 14:39:22;;;;;;;3.90;2.47;;;;;;;15.80;67.43;98067.34;124563;1108;64363;-83
2021/05/14 14:42:56;;;;;;;;;;;;;;;;;;;;;
2021/05/14 14:45:56;;;;;;;3.10;1.90;;;;;;;16.27;68.06;98072.03;124213;1103;64306;-90
2021/05/14 14:49:04;;;;;;;3.50;2.10;;;;;;;16.79;68.23;98058.11;124301;1108;64335;-85
2021/05/14 14:52:18;;;;;;;3.23;1.40;;;;;;;17.44;66.28;98060.52;124252;1108;64367;-90
2021/05/14 14:55:42;;;;;;;6.20;1.60;;;;;;;17.79;65.94;98061.80;124243;1102;64731;-89
2021/05/14 14:58:51;;;;;;;6.90;1.80;;;;;;;18.14;66.39;98048.70;124197;1108;64335;-88
2021/05/14 15:02:06;;;;;;;2.53;1.23;;;;;;;18.46;65.36;98058.35;124428;1103;64402;-84
2021/05/14 15:05:05;;;;;;;2.80;1.10;;;;;;;18.55;65.81;98053.69;124192;1108;64339;-90
2021/05/14 15:12:33;;;;;;;2.00;1.20;;;;;;;17.97;64.89;98055.27;124633;1104;64313;-86
2021/05/14 15:15:04;;;;;;;4.97;1.40;;;;;;;17.47;65.08;98062.00;124682;1099;64243;-89
2021/05/14 15:18:18;;;;;;;4.85;1.60;;;;;;;17.32;65.68;98058.39;124594;1104;64294;-87
2021/05/14 15:21:05;;;;;;;3.03;1.47;;;;;;;17.15;65.09;98057.63;124588;1097;64603;-84
2021/05/14 15:24:24;;;;;;;3.25;1.10;;;;;;;16.83;65.39;98064.85;124539;1100;64269;-87
2021/05/14 15:27:34;;;;;;;2.70;1.55;;;;;;;16.74;66.31;98060.52;124642;1104;64433;-85
2021/05/14 15:30:42;;;;;;;;;;;;;;;;;;;;;
2021/05/14 15:33:51;;;;;;;3.30;1.20;;;;;;;17.48;64.10;98059.12;124621;1104;64389;-87
2021/05/14 15:36:51;;;;;;;;;;;;;;;;;;;;;
2021/05/14 15:39:46;;;;;;;3.73;1.20;;;;;;;18.18;63.57;98055.40;124960;1101;64310;-87
2021/05/14 15:42:38;;;;;;;;;;;;;;;;;;;;;
2021/05/14 15:45:46;;;;;;;2.63;1.13;;;;;;;17.82;63.76;98063.33;125126;1096;64323;-84
2021/05/14 15:49:15;;;;;;;;;;;;;;;;;;;;;
2021/05/14 15:52:22;;;;;;;3.67;1.10;;;;;;;17.06;64.31;98064.09;124967;1101;64415;-89
2021/05/14 15:56:02;;;;;;;2.10;1.10;;;;;;;17.01;64.70;98068.15;124850;1095;64418;-87
2021/05/14 15:59:17;;;;;;;4.80;1.75;;;;;;;16.83;64.68;98069.41;124688;1104;64320;-86
2021/05/14 16:02:20;;;;;;;2.60;1.50;;;;;;;16.57;64.91;98066.92;124666;1099;64496;-84
2021/05/14 16:05:23;;;;;;;2.83;1.40;;;;;;;16.38;65.26;98077.07;124534;1104;64409;-87
2021/05/14 16:08:27;;;;;;;2.50;1.60;;;;;;;16.25;64.57;98070.53;124579;1104;64326;-86
2021/05/14 16:11:25;;;;;;;5.27;1.70;;;;;;;16.17;64.15;98068.69;124649;1104;64425;-83
2021/05/14 16:14:26;;;;;;;2.97;1.57;;;;;;;16.15;64.62;98071.53;124602;1104;64453;-87
2021/05/14 16:21:29;;;;;;;;;;;;;;;;;;;;;
2021/05/14 16:25:09;;;;;;;3.90;1.80;;;;;;;16.08;64.71;98072.38;124148;1108;64480;-90
2021/05/14 16:28:15;;;;;;;;;;;;;;;;;;;;;
2021/05/14 16:31:46;;;;;;;2.80;1.60;;;;;;;15.77;64.43;98073.05;123960;1111;64357;-87
2021/05/14 16:35:44;;;;;;;5.30;1.40;;;;;;;15.59;64.15;98069.66;123940;1103;64338;-85
2021/05/14 16:39:01;;;;;;;1.47;1.33;;;;;;;15.40;64.92;98068.95;124187;1103;64329;-85
2021/05/14 16:41:49;;;;;;;;;;;;;;;;;;;;;
2021/05/14 16:45:21;;;;;;;;;;;;;;;;;;;;;
2021/05/14 16:48:49;;;;;;;;;;;;;;;;;;;;;
2021/05/14 16:52:10;;;;;;;;;;;;;;;;;;;;;
2021/05/14 16:55:47;;;;;;;;;;;;;;;;;;;;;
2021/05/14 16:58:46;;;;;;;4.53;2.13;;;;;;;14.91;65.41;98081.39;124734;1104;64301;-83
2021/05/14 17:02:13;;;;;;;6.23;2.80;;;;;;;14.88;65.72;98076.33;124532;1100;64342;-82
2021/05/14 17:05:05;;;;;;;8.13;3.13;;;;;;;14.81;65.90;98076.13;124729;1104;64451;-83
2021/05/14 17:08:16;;;;;;;4.17;2.90;;;;;;;14.82;65.99;98085.91;124666;1101;64478;-87
2021/05/14 17:11:13;;;;;;;4.93;2.87;;;;;;;14.73;66.08;98086.01;124985;1095;64288;-84
2021/05/14 17:13:50;;;;;;;4.93;2.73;;;;;;;14.70;65.76;98094.41;125092;1096;64342;-83
2021/05/14 17:16:34;;;;;;;;;;;;;;;;;;;;;
2021/05/14 17:19:24;;;;;;;6.00;2.40;;;;;;;14.59;66.09;98108.95;124931;1096;64310;-84
2021/05/14 17:22:42;;;;;;;5.33;2.40;;;;;;;14.56;65.86;98098.50;124865;1096;64371;-84
2021/05/14 17:26:06;;;;;;;4.00;2.00;;;;;;;14.46;65.68;98103.13;124886;1101;64345;-85
2021/05/14 17:30:10;;;;;;;6.80;1.70;;;;;;;14.43;65.71;98101.58;124910;1096;64348;-84
2021/05/14 17:32:35;;;;;;;;;;;;;;;;;;;;;
2021/05/14 17:35:28;;;;;;;3.33;2.03;;;;;;;14.27;65.94;98105.02;124907;1096;64421;-83
2021/05/14 17:38:34;;;;;;;;;;;;;;;;;;;;;
2021/05/14 17:41:12;;;;;;;3.73;2.70;;;;;;;14.12;66.02;98113.77;124963;1101;64316;-84
2021/05/14 17:43:43;;;;;;;6.10;3.10;;;;;;;14.02;65.89;98103.98;125052;1101;64403;-84
2021/05/14 17:46:34;;;;;;;7.47;3.37;;;;;;;13.91;66.18;98112.27;125063;1101;64512;-84
2021/05/14 17:49:14;;;;;;;5.47;3.00;;;;;;;13.79;65.98;98117.02;125091;1097;64348;-85
2021/05/14 17:52:14;;;;;;;6.77;3.63;;;;;;;13.68;66.10;98116.44;125077;1101;64319;-83
2021/05/14 17:54:42;;;;;;;5.45;2.95;;;;;;;13.62;66.21;98115.20;125368;1097;64339;-84
2021/05/14 17:57:10;;;;;;;10.33;4.70;;;;;;;13.60;66.14;98114.48;125052;1101;64322;-83
2021/05/14 18:00:04;;;;;;;11.00;3.37;;;;;;;13.58;66.44;98112.97;125054;1096;64334;-84
2021/05/14 18:03:49;;;;;;;6.73;3.70;;;;;;;13.62;66.74;98109.00;124999;1101;64252;-84
2021/05/14 18:06:46;;;;;;;;;;;;;;;;;;;;;
2021/05/14 18:09:30;;;;;;;4.57;2.80;;;;;;;13.59;66.35;98111.97;125130;1101;64397;-84
2021/05/14 18:13:05;;;;;;;8.03;4.70;;;;;;;13.55;66.37;98119.49;125136;1101;64371;-88
2021/05/14 18:16:03;;;;;;;9.87;3.83;;;;;;;13.43;66.36;98118.02;125125;1101;64332;-83
2021/05/14 18:22:41;;;;;;;6.77;3.63;;;;;;;13.30;66.48;98115.70;124989;1101;64348;-84
2021/05/14 18:25:46;;;;;;;11.93;7.70;;;;;;;13.23;66.56;98122.63;125013;1101;64805;-84
2021/05/14 18:28:57;;;;;;;;;;;;;;;;;;;;;
2021/05/14 18:32:03;;;;;;;18.43;9.35;;;;;;;13.10;66.34;98130.99;124855;1101;64265;-86
2021/05/14 18:34:56;;;;;;;13.87;6.10;;;;;;;13.08;66.17;98138.35;124933;1095;64338;-84
2021/05/14 18:37:53;;;;;;;;;;;;;;;;;;;;;
2021/05/14 18:41:03;;;;;;;;;;;;;;;;;;;;;
2021/05/14 18:44:26;;;;;;;;;;;;;;;;;;;;;
2021/05/14 18:47:37;;;;;;;;;;;;;;;;;;;;;
2021/05/14 18:51:08;;;;;;;6.90;3.60;;;;;;;12.87;66.40;98151.16;124917;1101;64451;-83
2021/05/14 18:54:04;;;;;;;5.97;3.90;;;;;;;12.75;66.48;98155.00;125075;1096;64316;-83
2021/05/14 18:57:01;;;;;;;5.30;3.60;;;;;;;12.65;66.21;98161.21;125087;1101;64737;-83
2021/05/14 19:00:44;;;;;;;9.73;4.08;;;;;;;12.56;66.31;98159.42;125056;1097;64230;-83
2021/05/14 19:04:21;;;;;;;10.17;5.10;;;;;;;12.45;66.39;98167.61;124892;1101;64462;-84
2021/05/14 19:07:10;;;;;;;;;;;;;;;;;;;;;
2021/05/14 19:10:30;;;;;;;9.90;5.43;;;;;;;12.23;66.66;98175.97;124541;1100;64269;-87
2021/05/14 19:13:32;;;;;;;13.30;5.00;;;;;;;12.13;66.81;98184.84;124680;1100;64272;-83
2021/05/14 19:16:37;;;;;;;13.47;5.00;;;;;;;12.06;66.62;98180.20;124675;1104;64242;-84
2021/05/14 19:19:41;;;;;;;11.70;5.45;;;;;;;11.99;66.96;98192.45;124699;1100;64195;-85
2021/05/14 19:26:49;;;;;;;;;;;;;;;;;;;;;
2021/05/14 19:46:44;;;;;;;28.87;13.33;;;;;;;11.43;67.45;98201.05;125093;1097;64313;-85
2021/05/14 19:50:36;;;;;;;16.30;7.37;;;;;;;11.44;67.38;98200.91;125112;1101;64285;-85
2021/05/14 19:54:08;;;;;;;27.23;12.80;;;;;;;11.48;67.52;98207.69;125036;1095;64233;-83
2021/05/14 19:56:53;;;;;;;;;;;;;;;;;;;;;
2021/05/14 20:00:29;;;;;;;13.60;6.70;;;;;;;11.41;67.59;98208.38;125147;1101;64336;-83
2021/05/14 20:03:21;;;;;;;10.08;6.03;;;;;;;11.30;67.24;98207.48;124985;1101;64322;-83
2021/05/14 20:06:33;;;;;;;9.03;5.87;;;;;;;11.27;67.45;98220.30;125196;1101;64236;-83
2021/05/14 20:10:00;;;;;;;;;;;;;;;;;;;;;
2021/05/14 20:13:22;;;;;;;;;;;;;;;;;;;;;
2021/05/14 20:16:54;;;;;;;;;;;;;;;;;;;;;
2021/05/14 20:27:57;;;;;;;12.73;7.20;;;;;;;10.83;67.74;98236.55;124178;1102;64552;-83
2021/05/14 20:31:05;;;;;;;;;;;;;;;;;;;;;
2021/05/14 20:34:20;;;;;;;;;;;;;;;;;;;;;
2021/05/14 20:41:42;;;;;;;;;;;;;;;;;;;;;
2021/05/14 20:45:04;;;;;;;21.20;7.60;;;;;;;10.10;67.98;98247.21;124081;1103;64336;-84
2021/05/14 20:48:15;;;;;;;12.90;6.35;;;;;;;10.06;67.80;98251.13;124212;1100;64329;-83
2021/05/14 20:51:09;;;;;;;;;;;;;;;;;;;;;
2021/05/14 20:54:27;;;;;;;;;;;;;;;;;;;;;
2021/05/14 20:58:23;;;;;;;31.27;15.57;;;;;;;9.97;68.15;98242.89;124810;1096;64505;-82
2021/05/14 21:02:13;;;;;;;27.40;14.83;;;;;;;10.02;68.35;98245.19;124545;1104;64428;-83